sensor_id;sensor_type;location;lat;lon;timestamp;P1;durP1;ratioP1;P2;durP2;ratioP2
56427;SDS011;42331;53.578;9.760;2023-04-24T00:02:13;12.43;;;9.77;;
56427;SDS011;42331;53.578;9.760;2023-04-24T00:04:44;13.65;;;10.40;;
56427;SDS011;42331;53.578;9.760;2023-04-24T00:07:15;13.55;;;10.15;;
56427;SDS011;42331;53.578;9.760;2023-04-24T00:09:50;12.27;;;9.90;;
56427;SDS011;42331;53.578;9.760;2023-04-24T00:12:20;13.35;;;10.23;;
56427;SDS011;42331;53.578;9.760;2023-04-24T00:14:51;14.13;;;10.20;;
56427;SDS011;42331;53.578;9.760;2023-04-24T00:17:22;10.95;;;9.43;;
56427;SDS011;42331;53.578;9.760;2023-04-24T00:19:53;12.00;;;9.32;;
56427;SDS011;42331;53.578;9.760;2023-04-24T00:22:28;13.00;;;9.13;;
56427;SDS011;42331;53.578;9.760;2023-04-24T00:24:59;12.45;;;9.13;;
56427;SDS011;42331;53.578;9.760;2023-04-24T00:27:30;10.98;;;8.35;;
56427;SDS011;42331;53.578;9.760;2023-04-24T00:30:00;9.13;;;7.70;;
56427;SDS011;42331;53.578;9.760;2023-04-24T00:32:31;11.27;;;8.43;;
56427;SDS011;42331;53.578;9.760;2023-04-24T00:35:03;10.38;;;8.30;;
56427;SDS011;42331;53.578;9.760;2023-04-24T00:37:35;10.85;;;8.45;;
56427;SDS011;42331;53.578;9.760;2023-04-24T00:40:06;12.55;;;8.93;;
56427;SDS011;42331;53.578;9.760;2023-04-24T00:42:37;10.25;;;8.18;;
56427;SDS011;42331;53.578;9.760;2023-04-24T00:45:10;12.07;;;8.15;;
56427;SDS011;42331;53.578;9.760;2023-04-24T00:47:41;11.13;;;8.05;;
56427;SDS011;42331;53.578;9.760;2023-04-24T00:50:12;12.68;;;8.75;;
56427;SDS011;42331;53.578;9.760;2023-04-24T00:52:46;11.98;;;8.23;;
56427;SDS011;42331;53.578;9.760;2023-04-24T00:55:17;10.20;;;7.90;;
56427;SDS011;42331;53.578;9.760;2023-04-24T00:57:47;10.52;;;8.27;;
56427;SDS011;42331;53.578;9.760;2023-04-24T01:00:19;11.65;;;8.35;;
56427;SDS011;42331;53.578;9.760;2023-04-24T01:02:49;11.57;;;7.88;;
56427;SDS011;42331;53.578;9.760;2023-04-24T01:07:52;9.40;;;7.65;;
56427;SDS011;42331;53.578;9.760;2023-04-24T01:10:23;9.35;;;7.53;;
56427;SDS011;42331;53.578;9.760;2023-04-24T01:12:55;10.07;;;7.80;;
56427;SDS011;42331;53.578;9.760;2023-04-24T01:15:26;6.30;;;5.20;;
56427;SDS011;42331;53.578;9.760;2023-04-24T01:17:58;8.88;;;6.68;;
56427;SDS011;42331;53.578;9.760;2023-04-24T01:20:29;9.57;;;7.18;;
56427;SDS011;42331;53.578;9.760;2023-04-24T01:23:00;9.50;;;7.07;;
56427;SDS011;42331;53.578;9.760;2023-04-24T01:25:31;8.52;;;6.80;;
56427;SDS011;42331;53.578;9.760;2023-04-24T01:28:03;7.80;;;6.20;;
56427;SDS011;42331;53.578;9.760;2023-04-24T01:30:34;9.88;;;6.25;;
56427;SDS011;42331;53.578;9.760;2023-04-24T01:33:04;10.00;;;6.50;;
56427;SDS011;42331;53.578;9.760;2023-04-24T01:35:35;7.95;;;5.70;;
56427;SDS011;42331;53.578;9.760;2023-04-24T01:38:07;6.07;;;4.97;;
56427;SDS011;42331;53.578;9.760;2023-04-24T01:40:38;6.72;;;4.80;;
56427;SDS011;42331;53.578;9.760;2023-04-24T01:43:09;8.77;;;4.70;;
56427;SDS011;42331;53.578;9.760;2023-04-24T01:45:39;5.65;;;4.55;;
56427;SDS011;42331;53.578;9.760;2023-04-24T01:48:11;7.28;;;4.28;;
56427;SDS011;42331;53.578;9.760;2023-04-24T01:50:43;5.65;;;4.18;;
56427;SDS011;42331;53.578;9.760;2023-04-24T01:53:13;5.72;;;4.00;;
56427;SDS011;42331;53.578;9.760;2023-04-24T01:55:44;4.88;;;3.55;;
56427;SDS011;42331;53.578;9.760;2023-04-24T01:58:15;4.97;;;4.20;;
56427;SDS011;42331;53.578;9.760;2023-04-24T02:00:46;5.38;;;3.92;;
56427;SDS011;42331;53.578;9.760;2023-04-24T02:03:16;3.40;;;2.45;;
56427;SDS011;42331;53.578;9.760;2023-04-24T02:05:47;5.95;;;3.25;;
56427;SDS011;42331;53.578;9.760;2023-04-24T02:08:18;4.50;;;3.63;;
56427;SDS011;42331;53.578;9.760;2023-04-24T02:10:48;5.03;;;3.40;;
56427;SDS011;42331;53.578;9.760;2023-04-24T02:13:19;5.22;;;3.33;;
56427;SDS011;42331;53.578;9.760;2023-04-24T02:15:50;5.40;;;3.38;;
56427;SDS011;42331;53.578;9.760;2023-04-24T02:18:20;3.55;;;3.08;;
56427;SDS011;42331;53.578;9.760;2023-04-24T02:23:24;5.57;;;3.40;;
56427;SDS011;42331;53.578;9.760;2023-04-24T02:25:55;5.63;;;3.35;;
56427;SDS011;42331;53.578;9.760;2023-04-24T02:28:26;3.38;;;2.75;;
56427;SDS011;42331;53.578;9.760;2023-04-24T02:30:56;4.47;;;3.15;;
56427;SDS011;42331;53.578;9.760;2023-04-24T02:33:28;3.83;;;2.65;;
56427;SDS011;42331;53.578;9.760;2023-04-24T02:35:59;4.07;;;2.53;;
56427;SDS011;42331;53.578;9.760;2023-04-24T02:38:30;3.55;;;2.30;;
56427;SDS011;42331;53.578;9.760;2023-04-24T02:41:00;3.95;;;2.30;;
56427;SDS011;42331;53.578;9.760;2023-04-24T02:43:32;4.45;;;2.42;;
56427;SDS011;42331;53.578;9.760;2023-04-24T02:46:03;3.55;;;2.30;;
56427;SDS011;42331;53.578;9.760;2023-04-24T02:48:34;3.47;;;2.33;;
56427;SDS011;42331;53.578;9.760;2023-04-24T02:51:05;5.68;;;2.58;;
56427;SDS011;42331;53.578;9.760;2023-04-24T02:53:36;3.30;;;2.30;;
56427;SDS011;42331;53.578;9.760;2023-04-24T02:56:07;4.32;;;2.30;;
56427;SDS011;42331;53.578;9.760;2023-04-24T02:58:38;4.38;;;2.38;;
56427;SDS011;42331;53.578;9.760;2023-04-24T03:01:08;3.13;;;2.30;;
56427;SDS011;42331;53.578;9.760;2023-04-24T03:03:40;3.50;;;2.72;;
56427;SDS011;42331;53.578;9.760;2023-04-24T03:06:10;5.50;;;3.00;;
56427;SDS011;42331;53.578;9.760;2023-04-24T03:08:41;4.90;;;2.75;;
56427;SDS011;42331;53.578;9.760;2023-04-24T03:11:12;2.67;;;2.08;;
56427;SDS011;42331;53.578;9.760;2023-04-24T03:13:42;4.40;;;3.00;;
56427;SDS011;42331;53.578;9.760;2023-04-24T03:16:13;4.80;;;2.90;;
56427;SDS011;42331;53.578;9.760;2023-04-24T03:18:44;3.92;;;2.80;;
56427;SDS011;42331;53.578;9.760;2023-04-24T03:21:14;3.83;;;2.72;;
56427;SDS011;42331;53.578;9.760;2023-04-24T03:23:46;4.00;;;2.92;;
56427;SDS011;42331;53.578;9.760;2023-04-24T03:26:16;3.90;;;2.77;;
56427;SDS011;42331;53.578;9.760;2023-04-24T03:28:47;5.05;;;2.83;;
56427;SDS011;42331;53.578;9.760;2023-04-24T03:31:18;5.13;;;2.55;;
56427;SDS011;42331;53.578;9.760;2023-04-24T03:33:51;6.00;;;2.60;;
56427;SDS011;42331;53.578;9.760;2023-04-24T03:36:21;4.88;;;2.65;;
56427;SDS011;42331;53.578;9.760;2023-04-24T03:38:52;3.80;;;2.92;;
56427;SDS011;42331;53.578;9.760;2023-04-24T03:41:23;5.20;;;2.78;;
56427;SDS011;42331;53.578;9.760;2023-04-24T03:43:53;4.15;;;2.72;;
56427;SDS011;42331;53.578;9.760;2023-04-24T03:46:24;3.30;;;2.45;;
56427;SDS011;42331;53.578;9.760;2023-04-24T03:48:55;6.22;;;2.63;;
56427;SDS011;42331;53.578;9.760;2023-04-24T03:51:26;3.92;;;2.30;;
56427;SDS011;42331;53.578;9.760;2023-04-24T03:54:01;3.78;;;2.35;;
56427;SDS011;42331;53.578;9.760;2023-04-24T03:56:32;2.70;;;2.00;;
56427;SDS011;42331;53.578;9.760;2023-04-24T03:59:03;3.72;;;2.78;;
56427;SDS011;42331;53.578;9.760;2023-04-24T04:01:34;2.58;;;1.90;;
56427;SDS011;42331;53.578;9.760;2023-04-24T04:04:07;3.95;;;2.10;;
56427;SDS011;42331;53.578;9.760;2023-04-24T04:06:38;4.75;;;2.50;;
56427;SDS011;42331;53.578;9.760;2023-04-24T04:09:08;3.85;;;2.72;;
56427;SDS011;42331;53.578;9.760;2023-04-24T04:11:40;3.85;;;2.70;;
56427;SDS011;42331;53.578;9.760;2023-04-24T04:14:11;2.90;;;2.28;;
56427;SDS011;42331;53.578;9.760;2023-04-24T04:16:41;3.42;;;2.42;;
56427;SDS011;42331;53.578;9.760;2023-04-24T04:19:13;3.05;;;2.10;;
56427;SDS011;42331;53.578;9.760;2023-04-24T04:21:43;3.75;;;2.42;;
56427;SDS011;42331;53.578;9.760;2023-04-24T04:24:15;2.97;;;2.10;;
56427;SDS011;42331;53.578;9.760;2023-04-24T04:26:46;3.85;;;2.10;;
56427;SDS011;42331;53.578;9.760;2023-04-24T04:29:17;3.65;;;2.40;;
56427;SDS011;42331;53.578;9.760;2023-04-24T04:31:48;3.73;;;1.90;;
56427;SDS011;42331;53.578;9.760;2023-04-24T04:34:19;2.03;;;1.52;;
56427;SDS011;42331;53.578;9.760;2023-04-24T04:36:49;2.83;;;1.70;;
56427;SDS011;42331;53.578;9.760;2023-04-24T04:39:20;3.25;;;1.92;;
56427;SDS011;42331;53.578;9.760;2023-04-24T04:41:51;2.60;;;1.73;;
56427;SDS011;42331;53.578;9.760;2023-04-24T04:44:22;3.55;;;2.17;;
56427;SDS011;42331;53.578;9.760;2023-04-24T04:46:53;2.63;;;1.80;;
56427;SDS011;42331;53.578;9.760;2023-04-24T04:49:26;4.07;;;1.67;;
56427;SDS011;42331;53.578;9.760;2023-04-24T04:51:58;2.05;;;1.38;;
56427;SDS011;42331;53.578;9.760;2023-04-24T04:54:29;1.77;;;1.30;;
56427;SDS011;42331;53.578;9.760;2023-04-24T04:56:59;2.72;;;1.55;;
56427;SDS011;42331;53.578;9.760;2023-04-24T04:59:30;2.00;;;1.33;;
56427;SDS011;42331;53.578;9.760;2023-04-24T05:02:01;3.28;;;1.92;;
56427;SDS011;42331;53.578;9.760;2023-04-24T05:04:32;3.72;;;1.30;;
56427;SDS011;42331;53.578;9.760;2023-04-24T05:07:02;2.47;;;1.50;;
56427;SDS011;42331;53.578;9.760;2023-04-24T05:09:33;3.63;;;1.50;;
56427;SDS011;42331;53.578;9.760;2023-04-24T05:12:04;3.30;;;1.42;;
56427;SDS011;42331;53.578;9.760;2023-04-24T05:14:41;1.52;;;1.23;;
56427;SDS011;42331;53.578;9.760;2023-04-24T05:17:14;2.78;;;1.40;;
56427;SDS011;42331;53.578;9.760;2023-04-24T05:19:51;3.08;;;1.33;;
56427;SDS011;42331;53.578;9.760;2023-04-24T05:22:22;3.20;;;1.40;;
56427;SDS011;42331;53.578;9.760;2023-04-24T05:27:24;1.85;;;1.10;;
56427;SDS011;42331;53.578;9.760;2023-04-24T05:29:55;2.08;;;1.25;;
56427;SDS011;42331;53.578;9.760;2023-04-24T05:32:26;2.67;;;1.23;;
56427;SDS011;42331;53.578;9.760;2023-04-24T05:34:57;2.33;;;1.30;;
56427;SDS011;42331;53.578;9.760;2023-04-24T05:37:27;2.30;;;1.10;;
56427;SDS011;42331;53.578;9.760;2023-04-24T05:39:58;3.00;;;1.15;;
56427;SDS011;42331;53.578;9.760;2023-04-24T05:42:29;2.10;;;0.95;;
56427;SDS011;42331;53.578;9.760;2023-04-24T05:44:59;2.10;;;1.13;;
56427;SDS011;42331;53.578;9.760;2023-04-24T05:47:33;3.78;;;1.30;;
56427;SDS011;42331;53.578;9.760;2023-04-24T05:50:04;2.28;;;1.10;;
56427;SDS011;42331;53.578;9.760;2023-04-24T05:55:06;2.20;;;1.10;;
56427;SDS011;42331;53.578;9.760;2023-04-24T05:57:37;1.90;;;1.25;;
56427;SDS011;42331;53.578;9.760;2023-04-24T06:00:09;2.72;;;1.10;;
56427;SDS011;42331;53.578;9.760;2023-04-24T06:02:42;6.25;;;1.17;;
56427;SDS011;42331;53.578;9.760;2023-04-24T06:05:13;2.55;;;1.15;;
56427;SDS011;42331;53.578;9.760;2023-04-24T06:07:53;3.63;;;1.17;;
56427;SDS011;42331;53.578;9.760;2023-04-24T06:10:24;2.13;;;1.45;;
56427;SDS011;42331;53.578;9.760;2023-04-24T06:12:54;2.60;;;1.23;;
56427;SDS011;42331;53.578;9.760;2023-04-24T06:15:30;3.90;;;1.10;;
56427;SDS011;42331;53.578;9.760;2023-04-24T06:18:01;2.10;;;1.00;;
56427;SDS011;42331;53.578;9.760;2023-04-24T06:20:31;1.80;;;1.10;;
56427;SDS011;42331;53.578;9.760;2023-04-24T06:23:02;3.92;;;1.10;;
56427;SDS011;42331;53.578;9.760;2023-04-24T06:25:33;2.35;;;1.13;;
56427;SDS011;42331;53.578;9.760;2023-04-24T06:28:04;2.35;;;1.40;;
56427;SDS011;42331;53.578;9.760;2023-04-24T06:30:35;2.63;;;1.30;;
56427;SDS011;42331;53.578;9.760;2023-04-24T06:33:05;2.05;;;1.30;;
56427;SDS011;42331;53.578;9.760;2023-04-24T06:35:36;2.10;;;0.98;;
56427;SDS011;42331;53.578;9.760;2023-04-24T06:38:08;2.50;;;1.20;;
56427;SDS011;42331;53.578;9.760;2023-04-24T06:40:38;3.33;;;1.10;;
56427;SDS011;42331;53.578;9.760;2023-04-24T06:43:09;2.58;;;1.20;;
56427;SDS011;42331;53.578;9.760;2023-04-24T06:45:41;2.13;;;1.30;;
56427;SDS011;42331;53.578;9.760;2023-04-24T06:48:13;2.40;;;1.40;;
56427;SDS011;42331;53.578;9.760;2023-04-24T06:50:43;2.40;;;1.20;;
56427;SDS011;42331;53.578;9.760;2023-04-24T06:53:15;2.17;;;1.27;;
56427;SDS011;42331;53.578;9.760;2023-04-24T06:55:45;3.17;;;1.40;;
56427;SDS011;42331;53.578;9.760;2023-04-24T06:58:16;1.58;;;0.80;;
56427;SDS011;42331;53.578;9.760;2023-04-24T07:00:47;3.40;;;1.60;;
56427;SDS011;42331;53.578;9.760;2023-04-24T07:03:18;2.45;;;1.45;;
56427;SDS011;42331;53.578;9.760;2023-04-24T07:05:49;2.80;;;1.73;;
56427;SDS011;42331;53.578;9.760;2023-04-24T07:08:19;3.92;;;1.80;;
56427;SDS011;42331;53.578;9.760;2023-04-24T07:10:52;3.95;;;2.00;;
56427;SDS011;42331;53.578;9.760;2023-04-24T07:13:23;3.15;;;2.22;;
56427;SDS011;42331;53.578;9.760;2023-04-24T07:16:12;3.30;;;2.25;;
56427;SDS011;42331;53.578;9.760;2023-04-24T07:18:42;4.07;;;2.15;;
56427;SDS011;42331;53.578;9.760;2023-04-24T07:21:13;4.88;;;2.70;;
56427;SDS011;42331;53.578;9.760;2023-04-24T07:23:44;4.28;;;2.40;;
56427;SDS011;42331;53.578;9.760;2023-04-24T07:26:15;5.80;;;2.70;;
56427;SDS011;42331;53.578;9.760;2023-04-24T07:28:46;4.80;;;2.58;;
56427;SDS011;42331;53.578;9.760;2023-04-24T07:31:16;3.80;;;2.88;;
56427;SDS011;42331;53.578;9.760;2023-04-24T07:33:47;3.63;;;2.45;;
56427;SDS011;42331;53.578;9.760;2023-04-24T07:36:18;3.65;;;3.00;;
56427;SDS011;42331;53.578;9.760;2023-04-24T07:38:49;3.35;;;2.67;;
56427;SDS011;42331;53.578;9.760;2023-04-24T07:41:20;4.85;;;2.90;;
56427;SDS011;42331;53.578;9.760;2023-04-24T07:43:54;5.18;;;3.03;;
56427;SDS011;42331;53.578;9.760;2023-04-24T07:46:25;5.22;;;3.10;;
56427;SDS011;42331;53.578;9.760;2023-04-24T07:48:57;3.50;;;2.72;;
56427;SDS011;42331;53.578;9.760;2023-04-24T07:51:29;3.97;;;3.00;;
56427;SDS011;42331;53.578;9.760;2023-04-24T07:54:01;5.60;;;3.60;;
56427;SDS011;42331;53.578;9.760;2023-04-24T07:56:32;7.03;;;3.55;;
56427;SDS011;42331;53.578;9.760;2023-04-24T07:59:03;4.60;;;3.35;;
56427;SDS011;42331;53.578;9.760;2023-04-24T08:01:33;3.95;;;3.03;;
56427;SDS011;42331;53.578;9.760;2023-04-24T08:04:04;3.92;;;3.13;;
56427;SDS011;42331;53.578;9.760;2023-04-24T08:06:35;5.50;;;2.72;;
56427;SDS011;42331;53.578;9.760;2023-04-24T08:09:06;3.20;;;2.58;;
56427;SDS011;42331;53.578;9.760;2023-04-24T08:11:37;6.03;;;2.17;;
56427;SDS011;42331;53.578;9.760;2023-04-24T08:14:08;4.72;;;2.10;;
56427;SDS011;42331;53.578;9.760;2023-04-24T08:16:39;4.90;;;2.40;;
56427;SDS011;42331;53.578;9.760;2023-04-24T08:19:09;4.20;;;2.70;;
56427;SDS011;42331;53.578;9.760;2023-04-24T08:21:40;4.80;;;2.33;;
56427;SDS011;42331;53.578;9.760;2023-04-24T08:24:11;4.22;;;2.13;;
56427;SDS011;42331;53.578;9.760;2023-04-24T08:26:41;3.97;;;2.45;;
56427;SDS011;42331;53.578;9.760;2023-04-24T08:29:12;3.30;;;2.20;;
56427;SDS011;42331;53.578;9.760;2023-04-24T08:31:43;4.75;;;2.78;;
56427;SDS011;42331;53.578;9.760;2023-04-24T08:34:14;4.50;;;2.80;;
56427;SDS011;42331;53.578;9.760;2023-04-24T08:36:44;4.47;;;2.95;;
56427;SDS011;42331;53.578;9.760;2023-04-24T08:39:15;4.20;;;2.90;;
56427;SDS011;42331;53.578;9.760;2023-04-24T08:47:37;3.97;;;2.90;;
56427;SDS011;42331;53.578;9.760;2023-04-24T08:50:10;5.03;;;3.30;;
56427;SDS011;42331;53.578;9.760;2023-04-24T08:52:42;4.32;;;3.50;;
56427;SDS011;42331;53.578;9.760;2023-04-24T08:55:13;6.40;;;3.78;;
56427;SDS011;42331;53.578;9.760;2023-04-24T08:57:45;4.40;;;3.45;;
56427;SDS011;42331;53.578;9.760;2023-04-24T09:00:20;5.65;;;3.60;;
56427;SDS011;42331;53.578;9.760;2023-04-24T09:02:55;4.65;;;3.45;;
56427;SDS011;42331;53.578;9.760;2023-04-24T09:05:26;4.82;;;3.90;;
56427;SDS011;42331;53.578;9.760;2023-04-24T09:07:58;6.00;;;4.43;;
56427;SDS011;42331;53.578;9.760;2023-04-24T09:10:34;6.03;;;4.57;;
56427;SDS011;42331;53.578;9.760;2023-04-24T09:13:06;4.88;;;3.85;;
56427;SDS011;42331;53.578;9.760;2023-04-24T09:15:39;6.45;;;4.63;;
56427;SDS011;42331;53.578;9.760;2023-04-24T09:18:12;7.00;;;4.72;;
56427;SDS011;42331;53.578;9.760;2023-04-24T09:23:34;5.85;;;4.72;;
56427;SDS011;42331;53.578;9.760;2023-04-24T09:28:39;6.40;;;4.18;;
56427;SDS011;42331;53.578;9.760;2023-04-24T09:31:14;6.57;;;4.25;;
56427;SDS011;42331;53.578;9.760;2023-04-24T09:39:11;7.15;;;4.57;;
56427;SDS011;42331;53.578;9.760;2023-04-24T09:44:18;5.68;;;4.13;;
56427;SDS011;42331;53.578;9.760;2023-04-24T09:46:51;7.18;;;4.70;;
56427;SDS011;42331;53.578;9.760;2023-04-24T09:49:30;6.32;;;4.95;;
56427;SDS011;42331;53.578;9.760;2023-04-24T09:52:08;5.70;;;4.70;;
56427;SDS011;42331;53.578;9.760;2023-04-24T09:54:42;6.55;;;4.78;;
56427;SDS011;42331;53.578;9.760;2023-04-24T09:57:24;7.13;;;5.43;;
56427;SDS011;42331;53.578;9.760;2023-04-24T09:59:56;7.77;;;5.20;;
56427;SDS011;42331;53.578;9.760;2023-04-24T10:02:28;9.18;;;5.22;;
56427;SDS011;42331;53.578;9.760;2023-04-24T10:05:02;8.43;;;5.53;;
56427;SDS011;42331;53.578;9.760;2023-04-24T10:07:33;7.43;;;5.53;;
56427;SDS011;42331;53.578;9.760;2023-04-24T10:10:03;8.45;;;5.20;;
56427;SDS011;42331;53.578;9.760;2023-04-24T10:12:35;10.20;;;6.32;;
56427;SDS011;42331;53.578;9.760;2023-04-24T10:15:06;7.10;;;5.70;;
56427;SDS011;42331;53.578;9.760;2023-04-24T10:17:39;12.05;;;6.80;;
56427;SDS011;42331;53.578;9.760;2023-04-24T10:20:11;7.03;;;5.97;;
56427;SDS011;42331;53.578;9.760;2023-04-24T10:22:41;10.95;;;6.93;;
56427;SDS011;42331;53.578;9.760;2023-04-24T10:25:12;9.90;;;6.97;;
56427;SDS011;42331;53.578;9.760;2023-04-24T10:30:16;11.85;;;7.65;;
56427;SDS011;42331;53.578;9.760;2023-04-24T10:32:48;12.35;;;7.80;;
56427;SDS011;42331;53.578;9.760;2023-04-24T10:35:19;10.70;;;7.57;;
56427;SDS011;42331;53.578;9.760;2023-04-24T10:37:56;14.05;;;7.80;;
56427;SDS011;42331;53.578;9.760;2023-04-24T10:40:30;9.90;;;7.45;;
56427;SDS011;42331;53.578;9.760;2023-04-24T10:43:06;10.48;;;7.38;;
56427;SDS011;42331;53.578;9.760;2023-04-24T10:45:40;11.43;;;7.53;;
56427;SDS011;42331;53.578;9.760;2023-04-24T10:48:29;9.90;;;7.78;;
56427;SDS011;42331;53.578;9.760;2023-04-24T10:51:11;11.70;;;8.43;;
56427;SDS011;42331;53.578;9.760;2023-04-24T10:53:49;11.05;;;7.93;;
56427;SDS011;42331;53.578;9.760;2023-04-24T10:56:22;11.52;;;8.32;;
56427;SDS011;42331;53.578;9.760;2023-04-24T10:58:56;12.32;;;8.00;;
56427;SDS011;42331;53.578;9.760;2023-04-24T11:01:28;12.23;;;8.85;;
56427;SDS011;42331;53.578;9.760;2023-04-24T11:04:03;11.20;;;8.20;;
56427;SDS011;42331;53.578;9.760;2023-04-24T11:06:36;14.13;;;8.00;;
56427;SDS011;42331;53.578;9.760;2023-04-24T11:09:10;14.70;;;8.85;;
56427;SDS011;42331;53.578;9.760;2023-04-24T11:11:46;11.52;;;8.38;;
56427;SDS011;42331;53.578;9.760;2023-04-24T11:14:17;13.80;;;9.07;;
56427;SDS011;42331;53.578;9.760;2023-04-24T11:16:52;12.27;;;8.90;;
56427;SDS011;42331;53.578;9.760;2023-04-24T11:19:28;14.02;;;9.10;;
56427;SDS011;42331;53.578;9.760;2023-04-24T11:22:04;12.52;;;8.85;;
56427;SDS011;42331;53.578;9.760;2023-04-24T11:24:53;12.07;;;8.63;;
56427;SDS011;42331;53.578;9.760;2023-04-24T11:27:23;9.48;;;7.82;;
56427;SDS011;42331;53.578;9.760;2023-04-24T11:35:14;11.45;;;8.00;;
56427;SDS011;42331;53.578;9.760;2023-04-24T11:37:47;12.15;;;7.82;;
56427;SDS011;42331;53.578;9.760;2023-04-24T11:40:20;11.43;;;8.35;;
56427;SDS011;42331;53.578;9.760;2023-04-24T11:42:55;12.15;;;7.60;;
56427;SDS011;42331;53.578;9.760;2023-04-24T11:45:27;9.70;;;7.72;;
56427;SDS011;42331;53.578;9.760;2023-04-24T11:48:00;12.30;;;7.80;;
56427;SDS011;42331;53.578;9.760;2023-04-24T11:50:32;8.70;;;6.70;;
56427;SDS011;42331;53.578;9.760;2023-04-24T11:53:03;8.63;;;7.05;;
56427;SDS011;42331;53.578;9.760;2023-04-24T11:55:34;10.73;;;6.57;;
56427;SDS011;42331;53.578;9.760;2023-04-24T11:58:05;8.70;;;6.90;;
56427;SDS011;42331;53.578;9.760;2023-04-24T12:00:36;9.43;;;6.13;;
56427;SDS011;42331;53.578;9.760;2023-04-24T12:05:39;12.10;;;6.47;;
56427;SDS011;42331;53.578;9.760;2023-04-24T12:08:10;8.10;;;5.70;;
56427;SDS011;42331;53.578;9.760;2023-04-24T12:10:41;8.03;;;5.77;;
56427;SDS011;42331;53.578;9.760;2023-04-24T12:13:12;7.35;;;5.30;;
56427;SDS011;42331;53.578;9.760;2023-04-24T12:15:43;5.27;;;3.83;;
56427;SDS011;42331;53.578;9.760;2023-04-24T12:18:14;6.72;;;5.18;;
56427;SDS011;42331;53.578;9.760;2023-04-24T12:20:46;6.20;;;4.97;;
56427;SDS011;42331;53.578;9.760;2023-04-24T12:23:33;7.72;;;5.50;;
56427;SDS011;42331;53.578;9.760;2023-04-24T12:26:04;7.60;;;5.68;;
56427;SDS011;42331;53.578;9.760;2023-04-24T12:28:36;6.47;;;4.78;;
56427;SDS011;42331;53.578;9.760;2023-04-24T12:31:07;7.28;;;5.00;;
56427;SDS011;42331;53.578;9.760;2023-04-24T12:33:38;7.40;;;5.80;;
56427;SDS011;42331;53.578;9.760;2023-04-24T12:36:12;9.50;;;5.00;;
56427;SDS011;42331;53.578;9.760;2023-04-24T12:38:43;8.80;;;5.93;;
56427;SDS011;42331;53.578;9.760;2023-04-24T12:41:16;9.73;;;5.93;;
56427;SDS011;42331;53.578;9.760;2023-04-24T12:43:52;7.75;;;5.60;;
56427;SDS011;42331;53.578;9.760;2023-04-24T12:46:23;8.65;;;6.07;;
56427;SDS011;42331;53.578;9.760;2023-04-24T12:48:54;8.43;;;6.15;;
56427;SDS011;42331;53.578;9.760;2023-04-24T12:51:24;7.78;;;6.03;;
56427;SDS011;42331;53.578;9.760;2023-04-24T12:53:55;7.65;;;6.63;;
56427;SDS011;42331;53.578;9.760;2023-04-24T12:56:26;10.07;;;7.18;;
56427;SDS011;42331;53.578;9.760;2023-04-24T12:58:57;8.60;;;7.28;;
56427;SDS011;42331;53.578;9.760;2023-04-24T13:01:28;8.95;;;7.22;;
56427;SDS011;42331;53.578;9.760;2023-04-24T13:03:58;8.20;;;6.97;;
56427;SDS011;42331;53.578;9.760;2023-04-24T13:09:01;8.07;;;7.03;;
56427;SDS011;42331;53.578;9.760;2023-04-24T13:11:32;9.18;;;7.30;;
56427;SDS011;42331;53.578;9.760;2023-04-24T13:14:03;11.50;;;7.93;;
56427;SDS011;42331;53.578;9.760;2023-04-24T13:16:33;9.77;;;8.77;;
56427;SDS011;42331;53.578;9.760;2023-04-24T13:19:04;12.75;;;9.40;;
56427;SDS011;42331;53.578;9.760;2023-04-24T13:21:35;10.80;;;9.05;;
56427;SDS011;42331;53.578;9.760;2023-04-24T13:24:06;11.02;;;9.32;;
56427;SDS011;42331;53.578;9.760;2023-04-24T13:26:37;10.85;;;8.50;;
56427;SDS011;42331;53.578;9.760;2023-04-24T13:29:08;9.50;;;7.60;;
56427;SDS011;42331;53.578;9.760;2023-04-24T13:31:39;9.20;;;7.60;;
56427;SDS011;42331;53.578;9.760;2023-04-24T13:34:10;8.82;;;7.40;;
56427;SDS011;42331;53.578;9.760;2023-04-24T13:36:41;11.43;;;7.57;;
56427;SDS011;42331;53.578;9.760;2023-04-24T13:39:12;7.95;;;7.05;;
56427;SDS011;42331;53.578;9.760;2023-04-24T13:41:43;9.13;;;7.55;;
56427;SDS011;42331;53.578;9.760;2023-04-24T13:44:14;9.63;;;7.10;;
56427;SDS011;42331;53.578;9.760;2023-04-24T13:46:47;8.27;;;6.43;;
56427;SDS011;42331;53.578;9.760;2023-04-24T13:49:19;7.55;;;6.65;;
56427;SDS011;42331;53.578;9.760;2023-04-24T13:51:51;10.00;;;7.72;;
56427;SDS011;42331;53.578;9.760;2023-04-24T13:54:23;10.68;;;6.93;;
56427;SDS011;42331;53.578;9.760;2023-04-24T13:56:57;6.85;;;6.15;;
56427;SDS011;42331;53.578;9.760;2023-04-24T13:59:28;7.57;;;6.53;;
56427;SDS011;42331;53.578;9.760;2023-04-24T14:01:58;8.05;;;6.07;;
56427;SDS011;42331;53.578;9.760;2023-04-24T14:04:29;4.88;;;4.35;;
56427;SDS011;42331;53.578;9.760;2023-04-24T14:07:00;6.43;;;5.47;;
56427;SDS011;42331;53.578;9.760;2023-04-24T14:09:31;9.25;;;7.00;;
56427;SDS011;42331;53.578;9.760;2023-04-24T14:12:02;7.43;;;6.63;;
56427;SDS011;42331;53.578;9.760;2023-04-24T14:14:33;9.93;;;7.57;;
56427;SDS011;42331;53.578;9.760;2023-04-24T14:17:04;9.18;;;7.50;;
56427;SDS011;42331;53.578;9.760;2023-04-24T14:19:35;10.63;;;8.07;;
56427;SDS011;42331;53.578;9.760;2023-04-24T14:22:06;10.73;;;8.68;;
56427;SDS011;42331;53.578;9.760;2023-04-24T14:24:37;11.90;;;9.30;;
56427;SDS011;42331;53.578;9.760;2023-04-24T14:27:08;12.60;;;9.98;;
56427;SDS011;42331;53.578;9.760;2023-04-24T14:29:39;13.00;;;10.35;;
56427;SDS011;42331;53.578;9.760;2023-04-24T14:32:09;15.98;;;12.10;;
56427;SDS011;42331;53.578;9.760;2023-04-24T14:34:40;14.10;;;11.70;;
56427;SDS011;42331;53.578;9.760;2023-04-24T14:37:11;12.48;;;10.48;;
56427;SDS011;42331;53.578;9.760;2023-04-24T14:39:42;11.80;;;10.45;;
56427;SDS011;42331;53.578;9.760;2023-04-24T14:42:13;12.63;;;10.40;;
56427;SDS011;42331;53.578;9.760;2023-04-24T14:44:44;13.52;;;9.82;;
56427;SDS011;42331;53.578;9.760;2023-04-24T14:47:14;13.48;;;10.15;;
56427;SDS011;42331;53.578;9.760;2023-04-24T14:49:50;10.90;;;9.20;;
56427;SDS011;42331;53.578;9.760;2023-04-24T14:52:21;10.90;;;8.88;;
56427;SDS011;42331;53.578;9.760;2023-04-24T14:54:52;11.52;;;8.45;;
56427;SDS011;42331;53.578;9.760;2023-04-24T14:57:22;13.20;;;7.88;;
56427;SDS011;42331;53.578;9.760;2023-04-24T14:59:53;10.65;;;7.57;;
56427;SDS011;42331;53.578;9.760;2023-04-24T15:02:24;5.55;;;3.38;;
56427;SDS011;42331;53.578;9.760;2023-04-24T15:04:55;4.25;;;2.88;;
56427;SDS011;42331;53.578;9.760;2023-04-24T15:07:26;5.47;;;3.10;;
56427;SDS011;42331;53.578;9.760;2023-04-24T15:09:56;4.43;;;2.88;;
56427;SDS011;42331;53.578;9.760;2023-04-24T15:12:27;4.68;;;3.45;;
56427;SDS011;42331;53.578;9.760;2023-04-24T15:14:58;4.78;;;3.28;;
56427;SDS011;42331;53.578;9.760;2023-04-24T15:17:29;6.40;;;3.33;;
56427;SDS011;42331;53.578;9.760;2023-04-24T15:20:00;6.00;;;3.25;;
56427;SDS011;42331;53.578;9.760;2023-04-24T15:22:31;4.72;;;3.42;;
56427;SDS011;42331;53.578;9.760;2023-04-24T15:25:02;5.03;;;3.80;;
56427;SDS011;42331;53.578;9.760;2023-04-24T15:27:39;7.63;;;4.43;;
56427;SDS011;42331;53.578;9.760;2023-04-24T15:30:14;9.27;;;5.18;;
56427;SDS011;42331;53.578;9.760;2023-04-24T15:32:44;7.55;;;5.30;;
56427;SDS011;42331;53.578;9.760;2023-04-24T15:35:15;13.13;;;8.05;;
56427;SDS011;42331;53.578;9.760;2023-04-24T15:37:46;15.38;;;9.27;;
56427;SDS011;42331;53.578;9.760;2023-04-24T15:40:18;16.10;;;8.63;;
56427;SDS011;42331;53.578;9.760;2023-04-24T15:42:48;16.25;;;9.45;;
56427;SDS011;42331;53.578;9.760;2023-04-24T15:45:20;16.08;;;9.00;;
56427;SDS011;42331;53.578;9.760;2023-04-24T15:47:50;15.98;;;8.68;;
56427;SDS011;42331;53.578;9.760;2023-04-24T15:50:21;14.57;;;9.65;;
56427;SDS011;42331;53.578;9.760;2023-04-24T15:52:52;14.70;;;9.10;;